createdAt,value
2022-11-17T00:02:22.265Z,2.72
2022-11-17T00:04:48.859Z,2.70
2022-11-17T00:07:15.467Z,2.68
2022-11-17T00:09:42.150Z,2.63
2022-11-17T00:12:32.971Z,2.59
2022-11-17T00:14:59.901Z,2.57
2022-11-17T00:17:26.536Z,2.55
2022-11-17T00:20:11.838Z,2.56
2022-11-17T00:22:38.407Z,2.53
2022-11-17T00:25:05.360Z,2.51
2022-11-17T00:27:31.950Z,2.48
2022-11-17T00:29:58.489Z,2.50
2022-11-17T00:32:43.508Z,2.51
2022-11-17T00:35:12.187Z,2.49
2022-11-17T00:38:00.447Z,2.48
2022-11-17T00:40:27.321Z,2.45
2022-11-17T00:42:56.688Z,2.42
2022-11-17T00:45:23.246Z,2.38
2022-11-17T00:47:52.999Z,2.40
2022-11-17T00:50:19.532Z,2.40
2022-11-17T00:52:46.137Z,2.38
2022-11-17T00:55:12.790Z,2.41
2022-11-17T00:57:39.413Z,2.41
2022-11-17T01:00:06.690Z,2.41
2022-11-17T01:02:33.305Z,2.42
2022-11-17T01:04:59.898Z,2.43
2022-11-17T01:07:26.521Z,2.44
2022-11-17T01:09:53.154Z,2.44
2022-11-17T01:12:19.716Z,2.41
2022-11-17T01:14:46.838Z,2.40
2022-11-17T01:17:13.418Z,2.37
2022-11-17T01:19:40.003Z,2.36
2022-11-17T01:22:06.858Z,2.36
2022-11-17T01:24:35.861Z,2.36
2022-11-17T01:27:02.466Z,2.33
2022-11-17T01:29:31.821Z,2.33
2022-11-17T01:31:58.391Z,2.27
2022-11-17T01:34:25.073Z,2.32
2022-11-17T01:37:09.960Z,2.31
2022-11-17T01:39:38.901Z,2.32
2022-11-17T01:42:22.453Z,2.33
2022-11-17T01:45:05.935Z,2.36
2022-11-17T01:47:45.651Z,2.38
2022-11-17T01:50:27.300Z,2.38
2022-11-17T01:52:59.946Z,2.38
2022-11-17T01:55:34.553Z,2.37
2022-11-17T01:58:12.082Z,2.36
2022-11-17T02:00:40.057Z,2.37
2022-11-17T02:03:07.380Z,2.37
2022-11-17T02:05:45.839Z,2.37
2022-11-17T02:08:14.977Z,2.34
2022-11-17T02:10:47.126Z,2.34
2022-11-17T02:13:20.008Z,2.33
2022-11-17T02:15:46.711Z,2.32
2022-11-17T02:18:15.344Z,2.29
2022-11-17T02:20:51.745Z,2.27
2022-11-17T02:23:18.292Z,2.26
2022-11-17T02:26:03.477Z,2.25
2022-11-17T02:28:33.898Z,2.24
2022-11-17T02:31:19.217Z,2.24
2022-11-17T02:34:16.746Z,2.22
2022-11-17T02:36:56.956Z,2.22
2022-11-17T02:39:31.454Z,2.24
2022-11-17T02:42:08.708Z,2.24
2022-11-17T02:44:44.945Z,2.22
2022-11-17T02:47:26.307Z,2.18
2022-11-17T02:50:00.883Z,2.13
2022-11-17T02:52:29.837Z,2.11
2022-11-17T02:55:08.282Z,2.11
2022-11-17T02:57:40.476Z,2.13
2022-11-17T03:00:19.001Z,2.11
2022-11-17T03:03:06.548Z,2.08
2022-11-17T03:05:53.740Z,2.06
2022-11-17T03:08:44.456Z,2.08
2022-11-17T03:11:11.741Z,2.08
2022-11-17T03:14:07.254Z,2.08
2022-11-17T03:16:51.477Z,2.04
2022-11-17T03:19:35.676Z,2.00
2022-11-17T03:22:22.780Z,1.99
2022-11-17T03:24:51.009Z,1.99
2022-11-17T03:27:39.207Z,1.98
2022-11-17T03:30:09.069Z,1.96
2022-11-17T03:32:38.910Z,1.94
2022-11-17T03:35:10.085Z,1.95
2022-11-17T03:37:43.797Z,1.94
2022-11-17T03:40:16.593Z,1.95
2022-11-17T03:42:52.579Z,1.97
2022-11-17T03:45:23.795Z,1.98
2022-11-17T03:48:07.379Z,1.98
2022-11-17T03:50:38.717Z,1.99
2022-11-17T03:53:06.820Z,1.96
2022-11-17T03:56:13.885Z,1.95
2022-11-17T03:58:56.938Z,1.92
2022-11-17T04:01:27.566Z,1.89
2022-11-17T04:03:54.191Z,1.86
2022-11-17T04:06:20.810Z,1.82
2022-11-17T04:08:47.396Z,1.80
2022-11-17T04:11:32.741Z,1.76
2022-11-17T04:14:18.825Z,1.77
2022-11-17T04:16:45.387Z,1.84
2022-11-17T04:19:11.994Z,1.87
2022-11-17T04:21:38.609Z,1.89
2022-11-17T04:24:05.562Z,1.90
2022-11-17T04:26:50.618Z,1.92
2022-11-17T04:29:17.749Z,1.92
2022-11-17T04:31:44.372Z,1.94
2022-11-17T04:34:10.948Z,1.95
2022-11-17T04:36:43.403Z,1.94
2022-11-17T04:39:11.772Z,1.95
2022-11-17T04:41:54.335Z,1.96
2022-11-17T04:44:23.461Z,1.97
2022-11-17T04:46:50.279Z,1.95
2022-11-17T04:49:18.927Z,1.92
2022-11-17T04:51:45.781Z,1.88
2022-11-17T04:54:14.677Z,1.86
2022-11-17T04:56:41.303Z,1.83
2022-11-17T04:59:08.559Z,1.78
2022-11-17T05:01:36.325Z,1.75
2022-11-17T05:04:05.474Z,1.74
2022-11-17T05:06:36.773Z,1.70
2022-11-17T05:09:12.364Z,1.64
2022-11-17T05:11:57.762Z,1.61
2022-11-17T05:14:26.493Z,1.59
2022-11-17T05:17:10.374Z,1.59
2022-11-17T05:19:45.932Z,1.60
2022-11-17T05:22:39.038Z,1.60
2022-11-17T05:25:06.980Z,1.58
2022-11-17T05:27:34.542Z,1.57
2022-11-17T05:30:02.449Z,1.54
2022-11-17T05:32:29.088Z,1.50
2022-11-17T05:34:55.747Z,1.43
2022-11-17T05:37:22.330Z,1.39
2022-11-17T05:39:48.929Z,1.37
2022-11-17T05:42:15.532Z,1.36
2022-11-17T05:44:42.127Z,1.36
2022-11-17T05:47:08.705Z,1.35
2022-11-17T05:49:35.341Z,1.35
2022-11-17T05:52:01.998Z,1.32
2022-11-17T05:54:28.644Z,1.29
2022-11-17T05:57:08.909Z,1.27
2022-11-17T05:59:44.304Z,1.25
2022-11-17T06:02:25.096Z,1.23
2022-11-17T06:04:54.325Z,1.19
2022-11-17T06:07:21.119Z,1.19
2022-11-17T06:09:47.969Z,1.20
2022-11-17T06:12:15.420Z,1.22
2022-11-17T06:14:42.450Z,1.24
2022-11-17T06:17:21.572Z,1.24
2022-11-17T06:19:56.315Z,1.22
2022-11-17T06:22:25.450Z,1.23
2022-11-17T06:25:07.237Z,1.23
2022-11-17T06:27:35.659Z,1.26
2022-11-17T06:30:06.360Z,1.26
2022-11-17T06:32:38.670Z,1.27
2022-11-17T06:35:08.770Z,1.27
2022-11-17T06:37:35.620Z,1.26
2022-11-17T06:40:02.433Z,1.27
2022-11-17T06:42:47.546Z,1.26
2022-11-17T06:45:14.985Z,1.26
2022-11-17T06:47:41.673Z,1.23
2022-11-17T06:50:08.898Z,1.23
2022-11-17T06:52:35.516Z,1.25
2022-11-17T06:55:02.162Z,1.29
2022-11-17T06:57:31.223Z,1.30
2022-11-17T06:59:57.870Z,1.36
2022-11-17T07:02:24.552Z,1.40
2022-11-17T07:04:53.644Z,1.43
2022-11-17T07:07:22.976Z,1.45
2022-11-17T07:09:49.686Z,1.47
2022-11-17T07:12:16.455Z,1.49
2022-11-17T07:14:45.700Z,1.50
2022-11-17T07:17:12.414Z,1.50
2022-11-17T07:19:41.366Z,1.53
2022-11-17T07:22:08.047Z,1.54
2022-11-17T07:24:34.696Z,1.56
2022-11-17T07:27:04.931Z,1.59
2022-11-17T07:29:31.595Z,1.61
2022-11-17T07:31:58.249Z,1.62
2022-11-17T07:34:25.048Z,1.63
2022-11-17T07:36:51.675Z,1.63
2022-11-17T07:39:21.486Z,1.67
2022-11-17T07:41:48.653Z,1.69
2022-11-17T07:44:15.281Z,1.69
2022-11-17T07:46:44.654Z,1.67
2022-11-17T07:49:11.344Z,1.66
2022-11-17T07:51:38.057Z,1.66
2022-11-17T07:54:04.974Z,1.66
2022-11-17T07:56:31.840Z,1.65
2022-11-17T07:58:58.544Z,1.67
2022-11-17T08:01:27.610Z,1.68
2022-11-17T08:03:54.458Z,1.70
2022-11-17T08:06:21.309Z,1.70
2022-11-17T08:08:49.717Z,1.70
2022-11-17T08:11:16.418Z,1.73
2022-11-17T08:13:43.066Z,1.73
2022-11-17T08:16:10.976Z,1.73
2022-11-17T08:18:37.964Z,1.74
2022-11-17T08:21:10.639Z,1.73
2022-11-17T08:23:41.067Z,1.72
2022-11-17T08:26:10.440Z,1.74
2022-11-17T08:28:37.755Z,1.77
2022-11-17T08:31:07.081Z,1.78
2022-11-17T08:33:42.556Z,1.78
2022-11-17T08:36:11.485Z,1.78
2022-11-17T08:38:38.727Z,1.80
2022-11-17T08:41:08.470Z,1.87
2022-11-17T08:43:35.614Z,1.93
2022-11-17T08:46:02.849Z,2.00
2022-11-17T08:48:31.751Z,2.05
2022-11-17T08:51:04.135Z,2.11
2022-11-17T08:53:30.861Z,2.13
2022-11-17T08:55:58.504Z,2.19
2022-11-17T08:58:25.279Z,2.27
2022-11-17T09:00:52.248Z,2.36
2022-11-17T09:03:18.934Z,2.42
2022-11-17T09:05:49.570Z,2.46
2022-11-17T09:08:43.810Z,2.49
2022-11-17T09:11:10.676Z,2.55
2022-11-17T09:13:38.420Z,2.58
2022-11-17T09:16:07.921Z,2.61
2022-11-17T09:18:37.942Z,2.66
2022-11-17T09:21:11.114Z,2.68
2022-11-17T09:23:38.383Z,2.70
2022-11-17T09:26:07.665Z,2.68
2022-11-17T09:28:35.012Z,2.69
2022-11-17T09:31:10.241Z,2.68
2022-11-17T09:33:37.400Z,2.68
2022-11-17T09:36:04.591Z,2.65
2022-11-17T09:38:31.271Z,2.69
2022-11-17T09:40:59.302Z,2.71
2022-11-17T09:43:33.856Z,2.77
2022-11-17T09:46:13.442Z,2.80
2022-11-17T09:48:48.625Z,2.83
2022-11-17T09:51:20.486Z,2.89
2022-11-17T09:54:13.542Z,2.92
2022-11-17T09:56:40.846Z,2.94
2022-11-17T09:59:13.378Z,2.93
2022-11-17T10:01:40.175Z,2.95
2022-11-17T10:04:13.375Z,2.94
2022-11-17T10:06:44.278Z,3.00
2022-11-17T10:09:35.689Z,3.05
2022-11-17T10:12:31.063Z,3.08
2022-11-17T10:14:58.478Z,3.10
2022-11-17T10:17:25.151Z,3.12
2022-11-17T10:19:51.808Z,3.14
2022-11-17T10:22:34.665Z,3.14
2022-11-17T10:25:01.561Z,3.17
2022-11-17T10:27:33.318Z,3.20
2022-11-17T10:30:14.431Z,3.23
2022-11-17T10:32:56.268Z,3.26
2022-11-17T10:35:34.132Z,3.31
2022-11-17T10:38:02.148Z,3.32
2022-11-17T10:40:45.681Z,3.34
2022-11-17T10:43:12.345Z,3.37
2022-11-17T10:45:51.410Z,3.37
2022-11-17T10:48:38.298Z,3.33
2022-11-17T10:51:26.654Z,3.36
2022-11-17T10:54:16.135Z,3.36
2022-11-17T10:57:05.634Z,3.37
2022-11-17T10:59:41.402Z,3.39
2022-11-17T11:02:37.148Z,3.43
2022-11-17T11:05:13.942Z,3.42
2022-11-17T11:07:41.418Z,3.40
2022-11-17T11:10:14.835Z,3.35
2022-11-17T11:12:48.587Z,3.32
2022-11-17T11:15:21.052Z,3.29
2022-11-17T11:17:47.827Z,3.24
2022-11-17T11:20:17.336Z,3.21
2022-11-17T11:22:43.879Z,3.18
2022-11-17T11:25:29.008Z,3.17
2022-11-17T11:28:26.910Z,3.18
2022-11-17T11:31:13.812Z,3.20
2022-11-17T11:33:51.124Z,3.24
2022-11-17T11:36:53.737Z,3.31
2022-11-17T11:39:36.986Z,3.37
2022-11-17T11:42:08.197Z,3.39
2022-11-17T11:44:49.911Z,3.40
2022-11-17T11:47:51.026Z,3.42
2022-11-17T11:50:28.290Z,3.40
2022-11-17T11:53:03.026Z,3.39
2022-11-17T11:55:34.029Z,3.41
2022-11-17T11:58:23.136Z,3.42
2022-11-17T12:01:05.924Z,3.47
2022-11-17T12:03:57.235Z,3.51
2022-11-17T12:06:41.790Z,3.53
2022-11-17T12:09:17.468Z,3.58
2022-11-17T12:12:03.058Z,3.60
2022-11-17T12:14:35.426Z,3.64
2022-11-17T12:17:23.532Z,3.64
2022-11-17T12:20:07.541Z,3.65
2022-11-17T12:22:37.174Z,3.65
2022-11-17T12:25:05.755Z,3.67
2022-11-17T12:27:35.305Z,3.70
2022-11-17T12:30:04.235Z,3.68
2022-11-17T12:32:49.009Z,3.65
2022-11-17T12:35:26.205Z,3.65
2022-11-17T12:38:15.734Z,3.64
2022-11-17T12:40:49.484Z,3.63
2022-11-17T12:43:16.221Z,3.60
2022-11-17T12:45:58.029Z,3.57
2022-11-17T12:48:39.524Z,3.54
2022-11-17T12:51:15.628Z,3.53
2022-11-17T12:54:36.082Z,3.51
2022-11-17T12:57:14.655Z,3.49
2022-11-17T13:00:18.143Z,3.50
2022-11-17T13:02:47.416Z,3.51
2022-11-17T13:05:19.930Z,3.51
2022-11-17T13:07:46.863Z,3.49
2022-11-17T13:10:42.711Z,3.47
2022-11-17T13:13:23.790Z,3.47
2022-11-17T13:15:55.989Z,3.48
2022-11-17T13:18:41.264Z,3.47
2022-11-17T13:21:32.001Z,3.44
2022-11-17T13:24:00.538Z,3.46
2022-11-17T13:26:35.850Z,3.44
2022-11-17T13:29:18.451Z,3.42
2022-11-17T13:31:46.246Z,3.36
2022-11-17T13:34:13.452Z,3.33
2022-11-17T13:36:54.408Z,3.31
2022-11-17T13:39:26.884Z,3.29
2022-11-17T13:41:54.592Z,3.29
2022-11-17T13:44:25.705Z,3.24
2022-11-17T13:46:52.555Z,3.24
2022-11-17T13:49:34.929Z,3.23
2022-11-17T13:52:11.583Z,3.19
2022-11-17T13:54:44.231Z,3.18
2022-11-17T13:57:24.648Z,3.18
2022-11-17T13:59:52.078Z,3.14
2022-11-17T14:02:21.282Z,3.12
2022-11-17T14:05:18.369Z,3.11
2022-11-17T14:07:46.914Z,3.08
2022-11-17T14:10:28.010Z,3.04
2022-11-17T14:13:00.294Z,3.00
2022-11-17T14:15:29.524Z,2.97
2022-11-17T14:17:58.524Z,2.94
2022-11-17T14:20:25.094Z,2.93
2022-11-17T14:23:10.443Z,2.93
2022-11-17T14:25:42.781Z,2.92
2022-11-17T14:28:13.516Z,2.94
2022-11-17T14:30:40.329Z,2.92
2022-11-17T14:33:13.192Z,2.88
2022-11-17T14:35:40.599Z,2.84
2022-11-17T14:38:10.649Z,2.82
2022-11-17T14:40:37.335Z,2.83
2022-11-17T14:43:03.948Z,2.82
2022-11-17T14:45:30.876Z,2.77
2022-11-17T14:47:57.493Z,2.76
2022-11-17T14:50:24.116Z,2.73
2022-11-17T14:52:50.702Z,2.70
2022-11-17T14:55:17.323Z,2.68
2022-11-17T14:57:44.193Z,2.66
2022-11-17T15:00:15.815Z,2.61
2022-11-17T15:02:46.260Z,2.58
2022-11-17T15:05:13.180Z,2.54
2022-11-17T15:07:39.800Z,2.50
2022-11-17T15:10:07.313Z,2.45
2022-11-17T15:12:34.256Z,2.42
2022-11-17T15:15:00.951Z,2.35
2022-11-17T15:17:28.523Z,2.33
2022-11-17T15:19:55.713Z,2.35
2022-11-17T15:22:22.543Z,2.36
2022-11-17T15:24:49.408Z,2.33
2022-11-17T15:27:16.159Z,2.28
2022-11-17T15:29:42.761Z,2.26
2022-11-17T15:32:09.398Z,2.22
2022-11-17T15:34:36.030Z,2.19
2022-11-17T15:37:02.616Z,2.17
2022-11-17T15:39:29.807Z,2.14
2022-11-17T15:41:56.590Z,2.11
2022-11-17T15:44:23.295Z,2.08
2022-11-17T15:46:49.918Z,2.06
2022-11-17T15:49:16.825Z,2.02
2022-11-17T15:51:44.055Z,1.97
2022-11-17T15:54:16.670Z,1.92
2022-11-17T15:56:46.788Z,1.86
2022-11-17T15:59:14.165Z,1.84
2022-11-17T16:01:41.394Z,1.79
2022-11-17T16:04:13.910Z,1.74
2022-11-17T16:06:42.359Z,1.75
2022-11-17T16:09:10.243Z,1.74
2022-11-17T16:11:37.704Z,1.73
2022-11-17T16:14:05.384Z,1.75
2022-11-17T16:16:34.668Z,1.76
2022-11-17T16:19:02.396Z,1.74
2022-11-17T16:21:29.301Z,1.74
2022-11-17T16:23:57.534Z,1.73
2022-11-17T16:26:26.165Z,1.72
2022-11-17T16:29:01.366Z,1.71
2022-11-17T16:31:30.855Z,1.71
2022-11-17T16:34:00.544Z,1.72
2022-11-17T16:36:36.167Z,1.74
2022-11-17T16:39:06.253Z,1.76
2022-11-17T16:41:37.768Z,1.77
2022-11-17T16:44:09.902Z,1.75
2022-11-17T16:46:36.558Z,1.74
2022-11-17T16:49:06.371Z,1.76
2022-11-17T16:51:33.547Z,1.74
2022-11-17T16:54:02.310Z,1.72
2022-11-17T16:56:29.370Z,1.69
2022-11-17T16:58:56.494Z,1.66
2022-11-17T17:01:30.297Z,1.64
2022-11-17T17:03:59.077Z,1.65
2022-11-17T17:06:26.132Z,1.67
2022-11-17T17:08:58.001Z,1.67
2022-11-17T17:11:25.718Z,1.64
2022-11-17T17:13:52.544Z,1.63
2022-11-17T17:16:20.426Z,1.61
2022-11-17T17:18:47.275Z,1.57
2022-11-17T17:21:18.888Z,1.55
2022-11-17T17:23:45.836Z,1.53
2022-11-17T17:26:22.399Z,1.54
2022-11-17T17:28:52.549Z,1.53
2022-11-17T17:31:22.039Z,1.49
2022-11-17T17:33:50.863Z,1.47
2022-11-17T17:36:20.763Z,1.40
2022-11-17T17:38:56.455Z,1.37
2022-11-17T17:41:33.793Z,1.39
2022-11-17T17:44:06.110Z,1.37
2022-11-17T17:46:45.037Z,1.35
2022-11-17T17:49:12.836Z,1.33
2022-11-17T17:51:43.479Z,1.33
2022-11-17T17:54:17.177Z,1.33
2022-11-17T17:56:44.346Z,1.34
2022-11-17T17:59:11.483Z,1.31
2022-11-17T18:01:40.942Z,1.30
2022-11-17T18:04:15.792Z,1.30
2022-11-17T18:06:47.383Z,1.29
2022-11-17T18:09:15.949Z,1.29
2022-11-17T18:11:51.305Z,1.32
2022-11-17T18:14:24.886Z,1.33
2022-11-17T18:16:55.310Z,1.32
2022-11-17T18:19:26.894Z,1.35
2022-11-17T18:21:57.097Z,1.39
2022-11-17T18:24:23.933Z,1.41
2022-11-17T18:26:51.232Z,1.42
2022-11-17T18:29:19.031Z,1.42
2022-11-17T18:31:47.561Z,1.43
2022-11-17T18:34:21.114Z,1.47
2022-11-17T18:36:49.153Z,1.51
2022-11-17T18:39:17.356Z,1.54
2022-11-17T18:41:44.720Z,1.53
2022-11-17T18:44:19.750Z,1.56
2022-11-17T18:46:46.982Z,1.57
2022-11-17T18:49:14.391Z,1.57
2022-11-17T18:51:41.457Z,1.53
2022-11-17T18:54:10.627Z,1.50
2022-11-17T18:56:37.947Z,1.49
2022-11-17T18:59:11.559Z,1.48
2022-11-17T19:01:43.115Z,1.43
2022-11-17T19:04:13.584Z,1.43
2022-11-17T19:06:40.427Z,1.41
2022-11-17T19:09:08.340Z,1.40
2022-11-17T19:11:35.078Z,1.39
2022-11-17T19:14:03.074Z,1.40
2022-11-17T19:16:32.056Z,1.41
2022-11-17T19:18:59.431Z,1.41
2022-11-17T19:21:31.058Z,1.42
2022-11-17T19:24:00.400Z,1.44
2022-11-17T19:26:32.155Z,1.43
2022-11-17T19:29:04.598Z,1.41
2022-11-17T19:31:31.567Z,1.35
2022-11-17T19:33:58.842Z,1.34
2022-11-17T19:36:29.384Z,1.30
2022-11-17T19:38:57.827Z,1.28
2022-11-17T19:41:27.176Z,1.27
2022-11-17T19:43:55.643Z,1.23
2022-11-17T19:46:23.957Z,1.20
2022-11-17T19:48:51.089Z,1.15
2022-11-17T19:51:20.833Z,1.11
2022-11-17T19:53:49.083Z,1.08
2022-11-17T19:56:16.235Z,1.08
2022-11-17T19:58:43.451Z,1.07
2022-11-17T20:01:12.909Z,1.06
2022-11-17T20:03:40.488Z,1.04
2022-11-17T20:06:11.998Z,1.03
2022-11-17T20:08:39.317Z,1.02
2022-11-17T20:11:09.518Z,1.00
2022-11-17T20:13:37.204Z,0.99
2022-11-17T20:16:11.465Z,0.96
2022-11-17T20:18:38.539Z,0.94
2022-11-17T20:21:06.887Z,0.95
2022-11-17T20:23:37.051Z,0.95
2022-11-17T20:26:17.425Z,0.98
2022-11-17T20:28:44.842Z,1.00
2022-11-17T20:31:13.963Z,1.00
2022-11-17T20:33:42.036Z,0.99
2022-11-17T20:36:11.685Z,0.99
2022-11-17T20:38:38.351Z,0.99
2022-11-17T20:41:06.318Z,0.99
2022-11-17T21:00:04.892Z,0.99
2022-11-17T21:02:31.681Z,0.99
2022-11-17T21:04:58.256Z,0.96
2022-11-17T21:07:24.954Z,0.93
2022-11-17T21:09:51.728Z,0.91
2022-11-17T21:12:18.710Z,0.89
2022-11-17T21:14:45.330Z,0.86
2022-11-17T21:17:31.982Z,0.80
2022-11-17T21:19:58.713Z,0.73
2022-11-17T21:22:25.377Z,0.67
2022-11-17T21:24:52.099Z,0.63
2022-11-17T21:27:19.994Z,0.65
2022-11-17T21:29:46.983Z,0.62
2022-11-17T21:32:13.732Z,0.64
2022-11-17T21:34:40.323Z,0.65
2022-11-17T21:37:07.215Z,0.69
2022-11-17T21:39:33.834Z,0.69
2022-11-17T21:42:00.854Z,0.71
2022-11-17T21:44:27.851Z,0.70
2022-11-17T21:46:54.437Z,0.71
2022-11-17T21:49:21.020Z,0.72
2022-11-17T21:51:47.647Z,0.72
2022-11-17T21:54:14.306Z,0.72
2022-11-17T21:56:40.975Z,0.71
2022-11-17T21:59:12.462Z,0.69
2022-11-17T22:01:39.983Z,0.66
2022-11-17T22:04:06.951Z,0.66
2022-11-17T22:06:33.851Z,0.66
2022-11-17T22:09:00.735Z,0.68
2022-11-17T22:11:35.846Z,0.67
2022-11-17T22:14:13.466Z,0.66
2022-11-17T22:16:45.215Z,0.63
2022-11-17T22:19:13.067Z,0.62
2022-11-17T22:21:40.327Z,0.59
2022-11-17T22:24:10.070Z,0.56
2022-11-17T22:26:38.441Z,0.57
2022-11-17T22:29:06.701Z,0.60
2022-11-17T22:31:33.471Z,0.61
2022-11-17T22:34:00.167Z,0.61
2022-11-17T22:36:26.792Z,0.60
2022-11-17T22:38:53.380Z,0.60
2022-11-17T22:41:21.679Z,0.60
2022-11-17T22:43:52.367Z,0.61
2022-11-17T22:46:20.526Z,0.62
2022-11-17T22:48:47.524Z,0.60
2022-11-17T22:51:34.357Z,0.61
2022-11-17T22:54:01.203Z,0.58
2022-11-17T22:56:27.805Z,0.58
2022-11-17T22:58:59.456Z,0.57
2022-11-17T23:01:26.719Z,0.58
2022-11-17T23:03:53.440Z,0.59
2022-11-17T23:06:20.179Z,0.60
2022-11-17T23:08:46.768Z,0.63
2022-11-17T23:11:35.959Z,0.65
2022-11-17T23:14:00.143Z,0.72
2022-11-17T23:16:26.873Z,0.76
2022-11-17T23:18:56.992Z,0.81
2022-11-17T23:21:23.812Z,0.85
2022-11-17T23:23:50.858Z,0.87
2022-11-17T23:26:17.785Z,0.87
2022-11-17T23:28:44.477Z,0.87
2022-11-17T23:31:14.929Z,0.90
2022-11-17T23:33:46.517Z,0.92
2022-11-17T23:36:23.445Z,0.94
2022-11-17T23:38:51.274Z,0.95
2022-11-17T23:41:19.947Z,0.97
2022-11-17T23:43:49.408Z,1.02
2022-11-17T23:46:18.051Z,1.04
2022-11-17T23:48:45.478Z,1.07
2022-11-17T23:51:17.601Z,1.09
2022-11-17T23:53:44.545Z,1.13
2022-11-17T23:56:11.441Z,1.15
2022-11-17T23:58:38.499Z,1.19
